sensor_id;sensor_type;location;lat;lon;timestamp;pressure;altitude;pressure_sealevel;temperature;humidity
73941;BME280;62294;48.554;10.202;2023-08-20T00:02:23;95681.41;;;20.35;100.00
73941;BME280;62294;48.554;10.202;2023-08-20T00:04:50;95676.75;;;20.41;100.00
73941;BME280;62294;48.554;10.202;2023-08-20T00:07:18;95667.50;;;20.28;100.00
73941;BME280;62294;48.554;10.202;2023-08-20T00:09:44;95661.66;;;20.16;100.00
73941;BME280;62294;48.554;10.202;2023-08-20T00:12:11;95661.50;;;20.08;100.00
73941;BME280;62294;48.554;10.202;2023-08-20T00:15:00;95647.72;;;20.09;100.00
73941;BME280;62294;48.554;10.202;2023-08-20T00:17:36;95643.13;;;20.10;100.00
73941;BME280;62294;48.554;10.202;2023-08-20T00:20:05;95645.75;;;20.15;100.00
73941;BME280;62294;48.554;10.202;2023-08-20T00:22:37;95647.72;;;20.09;100.00
73941;BME280;62294;48.554;10.202;2023-08-20T00:25:04;95641.81;;;20.07;100.00
73941;BME280;62294;48.554;10.202;2023-08-20T00:27:32;95647.97;;;19.89;100.00
73941;BME280;62294;48.554;10.202;2023-08-20T00:29:59;95634.28;;;19.80;100.00
73941;BME280;62294;48.554;10.202;2023-08-20T00:32:26;95630.16;;;19.64;100.00
73941;BME280;62294;48.554;10.202;2023-08-20T00:34:53;95632.56;;;19.66;100.00
73941;BME280;62294;48.554;10.202;2023-08-20T00:37:19;95624.44;;;19.71;100.00
73941;BME280;62294;48.554;10.202;2023-08-20T00:39:46;95628.50;;;19.68;100.00
73941;BME280;62294;48.554;10.202;2023-08-20T00:42:13;95636.59;;;19.68;100.00
73941;BME280;62294;48.554;10.202;2023-08-20T00:44:42;95635.56;;;19.64;100.00
73941;BME280;62294;48.554;10.202;2023-08-20T00:47:12;95638.19;;;19.69;100.00
73941;BME280;62294;48.554;10.202;2023-08-20T00:49:39;95634.75;;;19.64;100.00
73941;BME280;62294;48.554;10.202;2023-08-20T00:52:12;95635.19;;;19.47;100.00
73941;BME280;62294;48.554;10.202;2023-08-20T00:54:40;95635.41;;;19.51;100.00
73941;BME280;62294;48.554;10.202;2023-08-20T00:57:07;95634.97;;;19.44;100.00
73941;BME280;62294;48.554;10.202;2023-08-20T00:59:34;95634.19;;;19.38;100.00
73941;BME280;62294;48.554;10.202;2023-08-20T01:02:01;95631.72;;;19.42;100.00
73941;BME280;62294;48.554;10.202;2023-08-20T01:04:29;95641.22;;;19.34;100.00
73941;BME280;62294;48.554;10.202;2023-08-20T01:10:05;95629.63;;;19.34;100.00
73941;BME280;62294;48.554;10.202;2023-08-20T01:12:34;95645.53;;;19.35;100.00
73941;BME280;62294;48.554;10.202;2023-08-20T01:15:02;95642.88;;;19.30;100.00
73941;BME280;62294;48.554;10.202;2023-08-20T01:17:28;95638.09;;;19.17;100.00
73941;BME280;62294;48.554;10.202;2023-08-20T01:19:56;95639.84;;;19.03;100.00
73941;BME280;62294;48.554;10.202;2023-08-20T01:25:30;95647.91;;;19.03;100.00
73941;BME280;62294;48.554;10.202;2023-08-20T01:28:24;95635.84;;;19.00;100.00
73941;BME280;62294;48.554;10.202;2023-08-20T01:30:52;95643.38;;;18.98;100.00
73941;BME280;62294;48.554;10.202;2023-08-20T01:33:20;95637.75;;;18.95;100.00
73941;BME280;62294;48.554;10.202;2023-08-20T01:35:46;95647.50;;;18.91;100.00
73941;BME280;62294;48.554;10.202;2023-08-20T01:38:13;95646.38;;;18.92;100.00
73941;BME280;62294;48.554;10.202;2023-08-20T01:40:39;95656.63;;;18.95;100.00
73941;BME280;62294;48.554;10.202;2023-08-20T01:43:06;95646.88;;;18.99;100.00
73941;BME280;62294;48.554;10.202;2023-08-20T01:45:33;95649.56;;;18.99;100.00
73941;BME280;62294;48.554;10.202;2023-08-20T01:48:00;95646.91;;;18.94;100.00
73941;BME280;62294;48.554;10.202;2023-08-20T01:50:27;95650.72;;;18.93;100.00
73941;BME280;62294;48.554;10.202;2023-08-20T01:52:53;95648.69;;;18.75;100.00
73941;BME280;62294;48.554;10.202;2023-08-20T01:55:20;95651.59;;;18.78;100.00
73941;BME280;62294;48.554;10.202;2023-08-20T01:57:46;95656.16;;;18.83;100.00
73941;BME280;62294;48.554;10.202;2023-08-20T02:00:14;95658.31;;;18.81;100.00
73941;BME280;62294;48.554;10.202;2023-08-20T02:02:40;95656.72;;;18.80;100.00
73941;BME280;62294;48.554;10.202;2023-08-20T02:05:07;95658.63;;;18.79;100.00
73941;BME280;62294;48.554;10.202;2023-08-20T02:07:34;95657.06;;;18.68;100.00
73941;BME280;62294;48.554;10.202;2023-08-20T02:10:01;95654.63;;;18.72;100.00
73941;BME280;62294;48.554;10.202;2023-08-20T02:12:28;95667.56;;;18.70;100.00
73941;BME280;62294;48.554;10.202;2023-08-20T02:14:54;95667.56;;;18.70;100.00
73941;BME280;62294;48.554;10.202;2023-08-20T02:17:22;95667.56;;;18.65;100.00
73941;BME280;62294;48.554;10.202;2023-08-20T02:19:49;95666.00;;;18.59;100.00
73941;BME280;62294;48.554;10.202;2023-08-20T02:22:16;95663.38;;;18.43;100.00
73941;BME280;62294;48.554;10.202;2023-08-20T02:24:43;95665.56;;;18.36;100.00
73941;BME280;62294;48.554;10.202;2023-08-20T02:27:10;95669.84;;;18.42;100.00
73941;BME280;62294;48.554;10.202;2023-08-20T02:29:36;95674.16;;;18.43;100.00
73941;BME280;62294;48.554;10.202;2023-08-20T02:32:03;95666.63;;;18.46;100.00
73941;BME280;62294;48.554;10.202;2023-08-20T02:34:30;95673.34;;;18.43;100.00
73941;BME280;62294;48.554;10.202;2023-08-20T02:36:56;95679.53;;;18.43;100.00
73941;BME280;62294;48.554;10.202;2023-08-20T02:39:22;95684.38;;;18.47;100.00
73941;BME280;62294;48.554;10.202;2023-08-20T02:41:51;95683.28;;;18.42;100.00
73941;BME280;62294;48.554;10.202;2023-08-20T02:44:17;95683.81;;;18.44;100.00
73941;BME280;62294;48.554;10.202;2023-08-20T02:46:44;95690.53;;;18.42;100.00
73941;BME280;62294;48.554;10.202;2023-08-20T02:49:11;95694.59;;;18.39;100.00
73941;BME280;62294;48.554;10.202;2023-08-20T02:51:37;95686.25;;;18.41;100.00
73941;BME280;62294;48.554;10.202;2023-08-20T02:54:04;95696.22;;;18.40;100.00
73941;BME280;62294;48.554;10.202;2023-08-20T02:56:31;95694.88;;;18.38;100.00
73941;BME280;62294;48.554;10.202;2023-08-20T02:58:57;95680.88;;;18.41;100.00
73941;BME280;62294;48.554;10.202;2023-08-20T03:01:26;95687.34;;;18.35;100.00
73941;BME280;62294;48.554;10.202;2023-08-20T03:03:52;95679.06;;;18.21;100.00
73941;BME280;62294;48.554;10.202;2023-08-20T03:06:19;95671.00;;;18.21;100.00
73941;BME280;62294;48.554;10.202;2023-08-20T03:08:45;95680.09;;;18.30;100.00
73941;BME280;62294;48.554;10.202;2023-08-20T03:11:12;95684.94;;;18.38;100.00
73941;BME280;62294;48.554;10.202;2023-08-20T03:13:39;95682.19;;;18.49;100.00
73941;BME280;62294;48.554;10.202;2023-08-20T03:16:05;95686.00;;;18.48;100.00
73941;BME280;62294;48.554;10.202;2023-08-20T03:18:32;95687.03;;;18.41;100.00
73941;BME280;62294;48.554;10.202;2023-08-20T03:20:58;95683.59;;;18.31;100.00
73941;BME280;62294;48.554;10.202;2023-08-20T03:23:26;95689.06;;;18.16;100.00
73941;BME280;62294;48.554;10.202;2023-08-20T03:25:53;95691.22;;;18.14;100.00
73941;BME280;62294;48.554;10.202;2023-08-20T03:28:21;95698.25;;;18.05;100.00
73941;BME280;62294;48.554;10.202;2023-08-20T03:30:47;95697.72;;;17.98;100.00
73941;BME280;62294;48.554;10.202;2023-08-20T03:33:14;95692.63;;;17.91;100.00
73941;BME280;62294;48.554;10.202;2023-08-20T03:35:42;95702.31;;;17.97;100.00
73941;BME280;62294;48.554;10.202;2023-08-20T03:38:09;95707.09;;;18.00;100.00
73941;BME280;62294;48.554;10.202;2023-08-20T03:40:35;95711.94;;;18.03;100.00
73941;BME280;62294;48.554;10.202;2023-08-20T03:43:02;95709.78;;;18.10;100.00
73941;BME280;62294;48.554;10.202;2023-08-20T03:45:28;95708.44;;;18.08;100.00
73941;BME280;62294;48.554;10.202;2023-08-20T03:47:57;95699.56;;;18.12;100.00
73941;BME280;62294;48.554;10.202;2023-08-20T03:50:23;95703.63;;;18.05;100.00
73941;BME280;62294;48.554;10.202;2023-08-20T03:52:50;95702.31;;;17.97;100.00
73941;BME280;62294;48.554;10.202;2023-08-20T03:55:16;95700.41;;;17.98;100.00
73941;BME280;62294;48.554;10.202;2023-08-20T03:57:43;95706.88;;;17.97;100.00
73941;BME280;62294;48.554;10.202;2023-08-20T04:00:10;95698.28;;;17.90;100.00
73941;BME280;62294;48.554;10.202;2023-08-20T04:02:38;95699.09;;;17.95;100.00
73941;BME280;62294;48.554;10.202;2023-08-20T04:05:05;95700.72;;;17.86;100.00
73941;BME280;62294;48.554;10.202;2023-08-20T04:07:31;95697.50;;;17.84;100.00
73941;BME280;62294;48.554;10.202;2023-08-20T04:09:59;95699.38;;;17.84;100.00
73941;BME280;62294;48.554;10.202;2023-08-20T04:12:25;95699.09;;;17.80;100.00
73941;BME280;62294;48.554;10.202;2023-08-20T04:14:52;95707.44;;;17.79;100.00
73941;BME280;62294;48.554;10.202;2023-08-20T04:17:18;95708.50;;;17.88;100.00
73941;BME280;62294;48.554;10.202;2023-08-20T04:19:45;95716.03;;;17.91;100.00
73941;BME280;62294;48.554;10.202;2023-08-20T04:22:12;95716.28;;;17.89;100.00
73941;BME280;62294;48.554;10.202;2023-08-20T04:24:39;95721.41;;;17.91;100.00
73941;BME280;62294;48.554;10.202;2023-08-20T04:27:06;95719.78;;;17.85;100.00
73941;BME280;62294;48.554;10.202;2023-08-20T04:29:32;95710.38;;;17.82;100.00
73941;BME280;62294;48.554;10.202;2023-08-20T04:31:59;95708.00;;;17.65;100.00
73941;BME280;62294;48.554;10.202;2023-08-20T04:34:26;95708.84;;;17.61;100.00
73941;BME280;62294;48.554;10.202;2023-08-20T04:36:52;95720.91;;;17.58;100.00
73941;BME280;62294;48.554;10.202;2023-08-20T04:39:19;95723.84;;;17.67;100.00
73941;BME280;62294;48.554;10.202;2023-08-20T04:41:45;95728.69;;;17.70;100.00
73941;BME280;62294;48.554;10.202;2023-08-20T04:44:12;95720.06;;;17.73;100.00
73941;BME280;62294;48.554;10.202;2023-08-20T04:46:38;95724.91;;;17.86;100.00
73941;BME280;62294;48.554;10.202;2023-08-20T04:49:05;95735.38;;;17.93;100.00
73941;BME280;62294;48.554;10.202;2023-08-20T04:51:32;95739.91;;;18.07;100.00
73941;BME280;62294;48.554;10.202;2023-08-20T04:53:58;95743.41;;;18.13;100.00
73941;BME280;62294;48.554;10.202;2023-08-20T04:56:25;95738.25;;;18.16;100.00
73941;BME280;62294;48.554;10.202;2023-08-20T04:58:51;95753.31;;;18.22;100.00
73941;BME280;62294;48.554;10.202;2023-08-20T05:01:18;95752.72;;;18.35;100.00
73941;BME280;62294;48.554;10.202;2023-08-20T05:03:44;95745.72;;;18.34;100.00
73941;BME280;62294;48.554;10.202;2023-08-20T05:06:11;95749.03;;;18.16;100.00
73941;BME280;62294;48.554;10.202;2023-08-20T05:08:38;95753.91;;;17.99;100.00
73941;BME280;62294;48.554;10.202;2023-08-20T05:11:04;95760.34;;;18.03;100.00
73941;BME280;62294;48.554;10.202;2023-08-20T05:13:31;95759.78;;;18.16;100.00
73941;BME280;62294;48.554;10.202;2023-08-20T05:15:57;95760.28;;;18.23;100.00
73941;BME280;62294;48.554;10.202;2023-08-20T05:18:24;95761.34;;;18.37;100.00
73941;BME280;62294;48.554;10.202;2023-08-20T05:20:53;95765.63;;;18.49;100.00
73941;BME280;62294;48.554;10.202;2023-08-20T05:23:19;95759.91;;;18.65;100.00
73941;BME280;62294;48.554;10.202;2023-08-20T05:25:45;95763.09;;;18.72;100.00
73941;BME280;62294;48.554;10.202;2023-08-20T05:28:12;95764.13;;;18.81;100.00
73941;BME280;62294;48.554;10.202;2023-08-20T05:30:38;95763.25;;;18.96;100.00
73941;BME280;62294;48.554;10.202;2023-08-20T05:33:05;95767.75;;;19.10;100.00
73941;BME280;62294;48.554;10.202;2023-08-20T05:35:32;95764.97;;;19.26;100.00
73941;BME280;62294;48.554;10.202;2023-08-20T05:37:58;95773.25;;;19.34;100.00
73941;BME280;62294;48.554;10.202;2023-08-20T05:40:25;95768.81;;;19.53;100.00
73941;BME280;62294;48.554;10.202;2023-08-20T05:42:52;95776.19;;;19.71;100.00
73941;BME280;62294;48.554;10.202;2023-08-20T05:45:18;95768.81;;;19.87;100.00
73941;BME280;62294;48.554;10.202;2023-08-20T05:47:45;95771.56;;;20.06;100.00
73941;BME280;62294;48.554;10.202;2023-08-20T05:50:11;95771.69;;;20.19;100.00
73941;BME280;62294;48.554;10.202;2023-08-20T05:52:38;95772.28;;;20.21;100.00
73941;BME280;62294;48.554;10.202;2023-08-20T05:55:05;95773.38;;;20.44;100.00
73941;BME280;62294;48.554;10.202;2023-08-20T05:57:31;95772.88;;;20.61;100.00
73941;BME280;62294;48.554;10.202;2023-08-20T05:59:58;95761.50;;;20.87;100.00
73941;BME280;62294;48.554;10.202;2023-08-20T06:02:24;95759.44;;;21.22;100.00
73941;BME280;62294;48.554;10.202;2023-08-20T06:04:51;95752.25;;;22.27;100.00
73941;BME280;62294;48.554;10.202;2023-08-20T06:07:17;95746.41;;;23.51;100.00
73941;BME280;62294;48.554;10.202;2023-08-20T06:09:44;95747.94;;;24.80;100.00
73941;BME280;62294;48.554;10.202;2023-08-20T06:12:10;95756.03;;;25.88;100.00
73941;BME280;62294;48.554;10.202;2023-08-20T06:14:37;95802.03;;;26.61;100.00
73941;BME280;62294;48.554;10.202;2023-08-20T06:17:04;95832.16;;;27.40;100.00
73941;BME280;62294;48.554;10.202;2023-08-20T06:19:30;95886.75;;;27.70;100.00
73941;BME280;62294;48.554;10.202;2023-08-20T06:21:58;95924.63;;;28.42;100.00
73941;BME280;62294;48.554;10.202;2023-08-20T06:24:25;95948.91;;;29.66;100.00
73941;BME280;62294;48.554;10.202;2023-08-20T06:26:52;96031.00;;;29.86;100.00
73941;BME280;62294;48.554;10.202;2023-08-20T06:29:18;96081.25;;;30.51;100.00
73941;BME280;62294;48.554;10.202;2023-08-20T06:31:45;96123.13;;;31.00;100.00
73941;BME280;62294;48.554;10.202;2023-08-20T06:34:11;96154.63;;;31.42;100.00
73941;BME280;62294;48.554;10.202;2023-08-20T06:36:38;96206.38;;;31.83;100.00
73941;BME280;62294;48.554;10.202;2023-08-20T06:39:05;96211.44;;;31.81;100.00
73941;BME280;62294;48.554;10.202;2023-08-20T06:41:31;96236.91;;;32.65;100.00
73941;BME280;62294;48.554;10.202;2023-08-20T06:43:58;96269.28;;;33.18;100.00
73941;BME280;62294;48.554;10.202;2023-08-20T06:46:24;96307.69;;;33.62;100.00
73941;BME280;62294;48.554;10.202;2023-08-20T06:48:51;96340.13;;;33.68;100.00
73941;BME280;62294;48.554;10.202;2023-08-20T06:51:21;96355.91;;;33.87;100.00
73941;BME280;62294;48.554;10.202;2023-08-20T06:53:49;96372.59;;;33.94;100.00
73941;BME280;62294;48.554;10.202;2023-08-20T06:56:15;96389.66;;;34.15;100.00
73941;BME280;62294;48.554;10.202;2023-08-20T06:58:42;96386.59;;;34.20;100.00
73941;BME280;62294;48.554;10.202;2023-08-20T07:01:09;96390.50;;;33.84;100.00
73941;BME280;62294;48.554;10.202;2023-08-20T07:03:38;96412.97;;;35.17;100.00
73941;BME280;62294;48.554;10.202;2023-08-20T07:06:05;96422.16;;;34.06;100.00
73941;BME280;62294;48.554;10.202;2023-08-20T07:08:32;96383.25;;;31.75;100.00
73941;BME280;62294;48.554;10.202;2023-08-20T07:10:58;96307.44;;;30.21;100.00
73941;BME280;62294;48.554;10.202;2023-08-20T07:13:25;96312.69;;;30.58;100.00
73941;BME280;62294;48.554;10.202;2023-08-20T07:15:51;96333.28;;;31.97;100.00
73941;BME280;62294;48.554;10.202;2023-08-20T07:18:18;96346.78;;;31.90;100.00
73941;BME280;62294;48.554;10.202;2023-08-20T07:20:45;96337.66;;;31.74;100.00
73941;BME280;62294;48.554;10.202;2023-08-20T07:23:11;96343.53;;;31.61;100.00
73941;BME280;62294;48.554;10.202;2023-08-20T07:25:40;96355.59;;;31.44;100.00
73941;BME280;62294;48.554;10.202;2023-08-20T07:28:08;96279.00;;;28.72;100.00
73941;BME280;62294;48.554;10.202;2023-08-20T07:30:35;96246.97;;;30.05;100.00
73941;BME280;62294;48.554;10.202;2023-08-20T07:33:02;96334.38;;;32.08;100.00
73941;BME280;62294;48.554;10.202;2023-08-20T07:35:31;96407.91;;;33.69;100.00
73941;BME280;62294;48.554;10.202;2023-08-20T07:37:58;96436.75;;;34.60;100.00
73941;BME280;62294;48.554;10.202;2023-08-20T07:40:24;96444.16;;;34.56;100.00
73941;BME280;62294;48.554;10.202;2023-08-20T07:42:51;96465.78;;;34.92;100.00
73941;BME280;62294;48.554;10.202;2023-08-20T07:45:18;96479.16;;;35.10;100.00
73941;BME280;62294;48.554;10.202;2023-08-20T07:47:44;96484.09;;;35.20;100.00
73941;BME280;62294;48.554;10.202;2023-08-20T07:50:11;96505.94;;;35.70;100.00
73941;BME280;62294;48.554;10.202;2023-08-20T07:52:37;96472.97;;;33.42;100.00
73941;BME280;62294;48.554;10.202;2023-08-20T07:55:04;96440.50;;;31.97;100.00
73941;BME280;62294;48.554;10.202;2023-08-20T07:57:30;96445.31;;;33.39;100.00
73941;BME280;62294;48.554;10.202;2023-08-20T07:59:57;96470.69;;;32.73;100.00
73941;BME280;62294;48.554;10.202;2023-08-20T08:02:23;96474.75;;;33.82;100.00
73941;BME280;62294;48.554;10.202;2023-08-20T08:04:50;96490.38;;;33.31;100.00
73941;BME280;62294;48.554;10.202;2023-08-20T08:07:17;96491.53;;;34.58;100.00
73941;BME280;62294;48.554;10.202;2023-08-20T08:09:43;96501.25;;;35.10;100.00
73941;BME280;62294;48.554;10.202;2023-08-20T08:12:11;96491.94;;;35.18;100.00
73941;BME280;62294;48.554;10.202;2023-08-20T08:14:38;96514.25;;;35.70;100.00
73941;BME280;62294;48.554;10.202;2023-08-20T08:17:05;96531.66;;;37.35;100.00
73941;BME280;62294;48.554;10.202;2023-08-20T08:19:32;96535.88;;;37.58;100.00
73941;BME280;62294;48.554;10.202;2023-08-20T08:21:58;96542.59;;;37.24;100.00
73941;BME280;62294;48.554;10.202;2023-08-20T08:24:25;96525.06;;;36.54;100.00
73941;BME280;62294;48.554;10.202;2023-08-20T08:26:51;96526.88;;;36.43;100.00
73941;BME280;62294;48.554;10.202;2023-08-20T08:29:18;96528.75;;;37.24;100.00
73941;BME280;62294;48.554;10.202;2023-08-20T08:31:44;96522.84;;;34.85;100.00
73941;BME280;62294;48.554;10.202;2023-08-20T08:34:11;96465.16;;;31.58;100.00
73941;BME280;62294;48.554;10.202;2023-08-20T08:36:38;96432.84;;;31.67;100.00
73941;BME280;62294;48.554;10.202;2023-08-20T08:39:05;96420.38;;;30.88;100.00
73941;BME280;62294;48.554;10.202;2023-08-20T08:41:32;96446.50;;;32.95;100.00
73941;BME280;62294;48.554;10.202;2023-08-20T08:44:01;96462.00;;;34.43;100.00
73941;BME280;62294;48.554;10.202;2023-08-20T08:46:29;96504.28;;;35.88;100.00
73941;BME280;62294;48.554;10.202;2023-08-20T08:48:56;96516.97;;;36.97;100.00
73941;BME280;62294;48.554;10.202;2023-08-20T08:51:23;96528.19;;;37.82;100.00
73941;BME280;62294;48.554;10.202;2023-08-20T08:53:50;96536.50;;;38.29;100.00
73941;BME280;62294;48.554;10.202;2023-08-20T08:56:17;96544.16;;;37.92;100.00
73941;BME280;62294;48.554;10.202;2023-08-20T08:58:43;96542.88;;;35.58;100.00
73941;BME280;62294;48.554;10.202;2023-08-20T09:01:10;96502.09;;;33.12;100.00
73941;BME280;62294;48.554;10.202;2023-08-20T09:03:36;96509.47;;;34.87;100.00
73941;BME280;62294;48.554;10.202;2023-08-20T09:06:08;96531.28;;;34.92;100.00
73941;BME280;62294;48.554;10.202;2023-08-20T09:08:35;96529.81;;;35.36;100.00
73941;BME280;62294;48.554;10.202;2023-08-20T09:11:02;96526.72;;;35.60;100.00
73941;BME280;62294;48.554;10.202;2023-08-20T09:13:40;96497.28;;;33.09;100.00
73941;BME280;62294;48.554;10.202;2023-08-20T09:16:11;96473.69;;;33.71;100.00
73941;BME280;62294;48.554;10.202;2023-08-20T09:18:45;96487.38;;;34.68;100.00
73941;BME280;62294;48.554;10.202;2023-08-20T09:21:13;96477.28;;;32.84;100.00
73941;BME280;62294;48.554;10.202;2023-08-20T09:23:40;96492.25;;;34.55;100.00
73941;BME280;62294;48.554;10.202;2023-08-20T09:26:07;96520.94;;;36.14;100.00
73941;BME280;62294;48.554;10.202;2023-08-20T09:28:45;96508.38;;;34.03;100.00
73941;BME280;62294;48.554;10.202;2023-08-20T09:31:12;96479.38;;;33.46;100.00
73941;BME280;62294;48.554;10.202;2023-08-20T09:33:52;96516.59;;;35.68;100.00
73941;BME280;62294;48.554;10.202;2023-08-20T09:36:30;96535.41;;;36.57;100.00
73941;BME280;62294;48.554;10.202;2023-08-20T09:38:56;96545.72;;;37.52;100.00
73941;BME280;62294;48.554;10.202;2023-08-20T09:41:23;96552.66;;;35.52;100.00
73941;BME280;62294;48.554;10.202;2023-08-20T09:43:55;96543.97;;;35.54;100.00
73941;BME280;62294;48.554;10.202;2023-08-20T09:46:25;96565.78;;;37.06;100.00
73941;BME280;62294;48.554;10.202;2023-08-20T09:48:55;96564.63;;;37.43;100.00
73941;BME280;62294;48.554;10.202;2023-08-20T09:51:27;96558.06;;;37.25;100.00
73941;BME280;62294;48.554;10.202;2023-08-20T09:54:14;96574.28;;;35.92;95.10
73941;BME280;62294;48.554;10.202;2023-08-20T09:56:46;96560.66;;;33.52;100.00
73941;BME280;62294;48.554;10.202;2023-08-20T09:59:17;96568.66;;;35.05;100.00
73941;BME280;62294;48.554;10.202;2023-08-20T10:01:44;96563.06;;;35.21;100.00
73941;BME280;62294;48.554;10.202;2023-08-20T10:04:10;96555.47;;;34.98;100.00
73941;BME280;62294;48.554;10.202;2023-08-20T10:06:37;96557.50;;;34.13;100.00
73941;BME280;62294;48.554;10.202;2023-08-20T10:09:04;96549.56;;;34.46;100.00
73941;BME280;62294;48.554;10.202;2023-08-20T10:11:31;96539.16;;;33.15;100.00
73941;BME280;62294;48.554;10.202;2023-08-20T10:13:58;96551.69;;;34.02;100.00
73941;BME280;62294;48.554;10.202;2023-08-20T10:16:27;96561.34;;;34.78;100.00
73941;BME280;62294;48.554;10.202;2023-08-20T10:18:54;96564.25;;;36.56;95.59
73941;BME280;62294;48.554;10.202;2023-08-20T10:21:26;96570.81;;;36.44;99.82
73941;BME280;62294;48.554;10.202;2023-08-20T10:23:53;96569.81;;;35.84;100.00
73941;BME280;62294;48.554;10.202;2023-08-20T10:26:20;96567.94;;;34.54;100.00
73941;BME280;62294;48.554;10.202;2023-08-20T10:28:48;96562.06;;;34.40;100.00
73941;BME280;62294;48.554;10.202;2023-08-20T10:31:16;96544.53;;;34.33;100.00
73941;BME280;62294;48.554;10.202;2023-08-20T10:36:18;96562.53;;;34.96;100.00
73941;BME280;62294;48.554;10.202;2023-08-20T10:38:49;96567.66;;;35.97;100.00
73941;BME280;62294;48.554;10.202;2023-08-20T10:41:16;96568.56;;;35.40;100.00
73941;BME280;62294;48.554;10.202;2023-08-20T10:43:47;96560.69;;;34.15;100.00
73941;BME280;62294;48.554;10.202;2023-08-20T10:46:19;96561.25;;;34.55;100.00
73941;BME280;62294;48.554;10.202;2023-08-20T10:48:56;96561.59;;;36.63;100.00
73941;BME280;62294;48.554;10.202;2023-08-20T10:51:34;96566.59;;;35.40;100.00
73941;BME280;62294;48.554;10.202;2023-08-20T10:54:08;96550.81;;;34.30;100.00
73941;BME280;62294;48.554;10.202;2023-08-20T10:56:48;96558.06;;;34.38;100.00
73941;BME280;62294;48.554;10.202;2023-08-20T10:59:21;96559.91;;;35.83;100.00
73941;BME280;62294;48.554;10.202;2023-08-20T11:01:50;96555.50;;;37.39;100.00
73941;BME280;62294;48.554;10.202;2023-08-20T11:04:19;96558.41;;;38.38;83.71
73941;BME280;62294;48.554;10.202;2023-08-20T11:06:49;96562.22;;;34.47;100.00
73941;BME280;62294;48.554;10.202;2023-08-20T11:09:17;96562.13;;;37.02;92.53
73941;BME280;62294;48.554;10.202;2023-08-20T11:11:44;96562.66;;;35.83;100.00
73941;BME280;62294;48.554;10.202;2023-08-20T11:14:14;96562.94;;;35.14;100.00
73941;BME280;62294;48.554;10.202;2023-08-20T11:16:42;96556.75;;;35.20;100.00
73941;BME280;62294;48.554;10.202;2023-08-20T11:19:13;96558.41;;;35.25;100.00
73941;BME280;62294;48.554;10.202;2023-08-20T11:21:41;96551.34;;;36.93;100.00
73941;BME280;62294;48.554;10.202;2023-08-20T11:24:09;96548.84;;;36.55;100.00
73941;BME280;62294;48.554;10.202;2023-08-20T11:26:38;96547.06;;;35.11;100.00
73941;BME280;62294;48.554;10.202;2023-08-20T11:29:06;96532.22;;;34.11;100.00
73941;BME280;62294;48.554;10.202;2023-08-20T11:31:32;96517.75;;;34.68;100.00
73941;BME280;62294;48.554;10.202;2023-08-20T11:33:59;96526.84;;;34.68;100.00
73941;BME280;62294;48.554;10.202;2023-08-20T11:36:26;96525.09;;;35.18;100.00
73941;BME280;62294;48.554;10.202;2023-08-20T11:38:53;96526.47;;;34.89;100.00
73941;BME280;62294;48.554;10.202;2023-08-20T11:41:21;96523.91;;;36.84;100.00
73941;BME280;62294;48.554;10.202;2023-08-20T11:43:48;96527.63;;;37.65;100.00
73941;BME280;62294;48.554;10.202;2023-08-20T11:46:17;96535.25;;;38.74;87.28
73941;BME280;62294;48.554;10.202;2023-08-20T11:51:35;96535.44;;;38.48;72.71
73941;BME280;62294;48.554;10.202;2023-08-20T11:54:07;96534.06;;;37.03;94.95
73941;BME280;62294;48.554;10.202;2023-08-20T11:56:35;96538.56;;;35.84;100.00
73941;BME280;62294;48.554;10.202;2023-08-20T11:59:02;96539.53;;;36.96;100.00
73941;BME280;62294;48.554;10.202;2023-08-20T12:01:32;96536.41;;;35.74;100.00
73941;BME280;62294;48.554;10.202;2023-08-20T12:04:06;96525.88;;;38.38;93.13
73941;BME280;62294;48.554;10.202;2023-08-20T12:06:35;96532.25;;;37.91;84.55
73941;BME280;62294;48.554;10.202;2023-08-20T12:09:21;96517.41;;;38.78;64.56
73941;BME280;62294;48.554;10.202;2023-08-20T12:11:54;96513.63;;;39.22;50.46
73941;BME280;62294;48.554;10.202;2023-08-20T12:14:22;96510.56;;;39.83;47.74
73941;BME280;62294;48.554;10.202;2023-08-20T12:16:49;96514.91;;;38.66;59.01
73941;BME280;62294;48.554;10.202;2023-08-20T12:19:17;96515.72;;;39.99;56.49
73941;BME280;62294;48.554;10.202;2023-08-20T12:21:44;96510.97;;;39.89;59.69
73941;BME280;62294;48.554;10.202;2023-08-20T12:24:10;96525.44;;;35.77;100.00
73941;BME280;62294;48.554;10.202;2023-08-20T12:26:40;96520.44;;;34.64;100.00
73941;BME280;62294;48.554;10.202;2023-08-20T12:29:07;96519.03;;;33.89;100.00
73941;BME280;62294;48.554;10.202;2023-08-20T12:31:34;96506.72;;;35.93;100.00
73941;BME280;62294;48.554;10.202;2023-08-20T12:34:01;96505.44;;;37.29;92.03
73941;BME280;62294;48.554;10.202;2023-08-20T12:36:29;96497.25;;;39.02;76.06
73941;BME280;62294;48.554;10.202;2023-08-20T12:38:55;96498.47;;;39.09;76.81
73941;BME280;62294;48.554;10.202;2023-08-20T12:41:22;96504.28;;;38.75;84.86
73941;BME280;62294;48.554;10.202;2023-08-20T12:43:49;96512.06;;;36.31;100.00
73941;BME280;62294;48.554;10.202;2023-08-20T12:46:16;96501.56;;;35.05;100.00
73941;BME280;62294;48.554;10.202;2023-08-20T12:48:43;96494.69;;;37.24;92.48
73941;BME280;62294;48.554;10.202;2023-08-20T12:51:10;96499.75;;;38.50;83.92
73941;BME280;62294;48.554;10.202;2023-08-20T12:53:39;96500.41;;;37.05;89.46
73941;BME280;62294;48.554;10.202;2023-08-20T12:56:06;96494.19;;;37.51;85.19